This is the latest recevied weather packets stored in our database for station/object OK1JIL-13. If no packets are shown the sender has not sent any weather packets the latest 10 day(s).
| Time | Temp. | Humidity | Pressure | Rain* | Wind** | Luminosity | Snow |
|---|---|---|---|---|---|---|---|
| 1777285384 | 15.56° C | 26% | 1022.7 hPa | - | - | - | - |
| 1777284785 | 15° C | 25% | 1022.9 hPa | - | - | - | - |
| 1777281784 | 14.44° C | 26% | 1023.2 hPa | - | - | - | - |
| 1777281184 | 15° C | 27% | 1023.2 hPa | - | - | - | - |
| 1777280584 | 13.89° C | 28% | 1023.2 hPa | - | - | - | - |
| 1777279984 | 11.11° C | 30% | 1023.3 hPa | - | - | - | - |
| 1777279387 | 11.67° C | 30% | 1023.3 hPa | - | - | - | - |
| 1777278782 | 12.78° C | 28% | 1023.3 hPa | - | - | - | - |
| 1777278182 | 11.11° C | 29% | 1023.2 hPa | - | - | - | - |
| 1777277582 | 12.22° C | 27% | 1023.3 hPa | - | - | - | - |
| 1777276982 | 10.56° C | 32% | 1023.2 hPa | - | - | - | - |
| 1777275182 | 10.56° C | 29% | 1023.3 hPa | - | - | - | - |
| 1777274582 | 10.56° C | 28% | 1023.3 hPa | - | - | - | - |
| 1777273983 | 11.11° C | 28% | 1023.2 hPa | - | - | - | - |
| 1777273382 | 10° C | 29% | 1023.4 hPa | - | - | - | - |
| 1777272782 | 10.56° C | 28% | 1023.4 hPa | - | - | - | - |
| 1777272182 | 9.44° C | 29% | 1023.5 hPa | - | - | - | - |
| 1777271582 | 10.56° C | 28% | 1023.4 hPa | - | - | - | - |
| 1777270982 | 11.67° C | 25% | 1023.4 hPa | - | - | - | - |
| 1777270382 | 12.22° C | 25% | 1023.4 hPa | - | - | - | - |
| 1777269782 | 11.11° C | 25% | 1023.4 hPa | - | - | - | - |
| 1777269182 | 10° C | 26% | 1023.4 hPa | - | - | - | - |
| 1777267982 | 9.44° C | 27% | 1023.4 hPa | - | - | - | - |
| 1777267382 | 9.44° C | 26% | 1023.4 hPa | - | - | - | - |
| 1777266782 | 9.44° C | 27% | 1023.4 hPa | - | - | - | - |
* Rain since midnight (hover to see other rain measurements)
** Current wind speed in m/s (hover to see current wind gust speed)